sensor_id;sensor_type;location;lat;lon;timestamp;pressure;altitude;pressure_sealevel;temperature;humidity
47935;BME280;33704;43.592;-79.628;2024-03-02T00:00:23;100574.31;;;34.29;18.21
47935;BME280;33704;43.592;-79.628;2024-03-02T00:00:55;100574.43;;;34.30;18.13
47935;BME280;33704;43.592;-79.628;2024-03-02T00:01:27;100574.79;;;34.33;18.04
47935;BME280;33704;43.592;-79.628;2024-03-02T00:01:59;100575.44;;;34.33;18.01
47935;BME280;33704;43.592;-79.628;2024-03-02T00:02:31;100575.09;;;34.33;18.07
47935;BME280;33704;43.592;-79.628;2024-03-02T00:03:05;100574.80;;;34.34;18.18
47935;BME280;33704;43.592;-79.628;2024-03-02T00:03:38;100576.25;;;34.33;18.53
47935;BME280;33704;43.592;-79.628;2024-03-02T00:04:10;100578.76;;;34.38;18.55
47935;BME280;33704;43.592;-79.628;2024-03-02T00:04:44;100578.87;;;34.41;18.47
47935;BME280;33704;43.592;-79.628;2024-03-02T00:05:18;100576.52;;;34.43;18.48
47935;BME280;33704;43.592;-79.628;2024-03-02T00:05:52;100578.09;;;34.39;18.67
47935;BME280;33704;43.592;-79.628;2024-03-02T00:06:24;100577.54;;;34.38;19.07
47935;BME280;33704;43.592;-79.628;2024-03-02T00:06:56;100578.44;;;34.39;18.92
47935;BME280;33704;43.592;-79.628;2024-03-02T00:07:28;100578.88;;;34.41;18.76
47935;BME280;33704;43.592;-79.628;2024-03-02T00:08:00;100579.55;;;34.45;18.85
47935;BME280;33704;43.592;-79.628;2024-03-02T00:08:33;100579.56;;;34.45;19.01
47935;BME280;33704;43.592;-79.628;2024-03-02T00:09:05;100579.27;;;34.44;18.84
47935;BME280;33704;43.592;-79.628;2024-03-02T00:09:37;100577.35;;;34.43;18.87
47935;BME280;33704;43.592;-79.628;2024-03-02T00:10:11;100576.27;;;34.43;18.85
47935;BME280;33704;43.592;-79.628;2024-03-02T00:10:44;100577.45;;;34.41;18.86
47935;BME280;33704;43.592;-79.628;2024-03-02T00:11:17;100581.02;;;34.41;18.81
47935;BME280;33704;43.592;-79.628;2024-03-02T00:11:49;100576.65;;;34.42;18.85
47935;BME280;33704;43.592;-79.628;2024-03-02T00:12:21;100575.87;;;34.46;18.82
47935;BME280;33704;43.592;-79.628;2024-03-02T00:12:54;100573.56;;;34.47;18.77
47935;BME280;33704;43.592;-79.628;2024-03-02T00:13:26;100572.78;;;34.48;18.90
47935;BME280;33704;43.592;-79.628;2024-03-02T00:13:58;100570.49;;;34.53;18.93
47935;BME280;33704;43.592;-79.628;2024-03-02T00:14:30;100566.44;;;34.57;18.95
47935;BME280;33704;43.592;-79.628;2024-03-02T00:15:19;100566.35;;;34.59;18.96
47935;BME280;33704;43.592;-79.628;2024-03-02T00:15:58;100568.39;;;34.54;19.19
47935;BME280;33704;43.592;-79.628;2024-03-02T00:16:31;100568.71;;;34.53;19.35
47935;BME280;33704;43.592;-79.628;2024-03-02T00:17:04;100568.83;;;34.53;19.20
47935;BME280;33704;43.592;-79.628;2024-03-02T00:17:36;100567.67;;;34.57;18.97
47935;BME280;33704;43.592;-79.628;2024-03-02T00:18:08;100563.15;;;34.56;19.01
47935;BME280;33704;43.592;-79.628;2024-03-02T00:18:43;100566.05;;;34.60;18.99
47935;BME280;33704;43.592;-79.628;2024-03-02T00:19:15;100564.07;;;34.59;19.30
47935;BME280;33704;43.592;-79.628;2024-03-02T00:19:46;100566.10;;;34.58;19.30
47935;BME280;33704;43.592;-79.628;2024-03-02T00:20:20;100564.29;;;34.59;19.48
47935;BME280;33704;43.592;-79.628;2024-03-02T00:20:54;100563.30;;;34.61;19.46
47935;BME280;33704;43.592;-79.628;2024-03-02T00:21:28;100562.13;;;34.63;19.49
47935;BME280;33704;43.592;-79.628;2024-03-02T00:22:03;100561.01;;;34.64;19.32
47935;BME280;33704;43.592;-79.628;2024-03-02T00:22:36;100562.14;;;34.66;19.47
47935;BME280;33704;43.592;-79.628;2024-03-02T00:23:09;100559.13;;;34.67;19.21
47935;BME280;33704;43.592;-79.628;2024-03-02T00:23:42;100563.16;;;34.70;19.27
47935;BME280;33704;43.592;-79.628;2024-03-02T00:24:20;100566.14;;;34.70;19.23
47935;BME280;33704;43.592;-79.628;2024-03-02T00:24:53;100564.62;;;34.74;19.11
47935;BME280;33704;43.592;-79.628;2024-03-02T00:25:25;100566.29;;;34.74;19.34
47935;BME280;33704;43.592;-79.628;2024-03-02T00:25:57;100565.79;;;34.73;19.23
47935;BME280;33704;43.592;-79.628;2024-03-02T00:26:30;100569.65;;;34.72;19.31
47935;BME280;33704;43.592;-79.628;2024-03-02T00:27:05;100568.17;;;34.69;19.54
47935;BME280;33704;43.592;-79.628;2024-03-02T00:27:37;100568.76;;;34.73;19.37
47935;BME280;33704;43.592;-79.628;2024-03-02T00:28:16;100565.50;;;34.72;19.63
47935;BME280;33704;43.592;-79.628;2024-03-02T00:28:49;100565.59;;;34.74;19.47
47935;BME280;33704;43.592;-79.628;2024-03-02T00:29:21;100565.31;;;34.74;19.81
47935;BME280;33704;43.592;-79.628;2024-03-02T00:29:53;100568.07;;;34.71;19.70
47935;BME280;33704;43.592;-79.628;2024-03-02T00:30:50;100564.00;;;34.71;19.60
47935;BME280;33704;43.592;-79.628;2024-03-02T00:31:23;100565.38;;;34.77;19.60
47935;BME280;33704;43.592;-79.628;2024-03-02T00:31:55;100563.88;;;34.78;19.57
47935;BME280;33704;43.592;-79.628;2024-03-02T00:32:26;100561.18;;;34.79;19.60
47935;BME280;33704;43.592;-79.628;2024-03-02T00:32:59;100558.71;;;34.79;19.58
47935;BME280;33704;43.592;-79.628;2024-03-02T00:33:33;100557.88;;;34.81;19.59
47935;BME280;33704;43.592;-79.628;2024-03-02T00:34:06;100556.57;;;34.77;19.57
47935;BME280;33704;43.592;-79.628;2024-03-02T00:34:37;100553.81;;;34.76;19.65
47935;BME280;33704;43.592;-79.628;2024-03-02T00:35:09;100554.11;;;34.76;19.80
47935;BME280;33704;43.592;-79.628;2024-03-02T00:35:44;100557.27;;;34.76;19.65
47935;BME280;33704;43.592;-79.628;2024-03-02T00:36:22;100555.20;;;34.79;19.61
47935;BME280;33704;43.592;-79.628;2024-03-02T00:36:57;100553.91;;;34.81;19.66
47935;BME280;33704;43.592;-79.628;2024-03-02T00:37:30;100552.44;;;34.84;19.60
47935;BME280;33704;43.592;-79.628;2024-03-02T00:38:05;100551.18;;;34.83;19.91
47935;BME280;33704;43.592;-79.628;2024-03-02T00:38:44;100549.58;;;34.84;19.73
47935;BME280;33704;43.592;-79.628;2024-03-02T00:39:17;100549.18;;;34.90;19.99
47935;BME280;33704;43.592;-79.628;2024-03-02T00:39:49;100552.52;;;34.92;19.62
47935;BME280;33704;43.592;-79.628;2024-03-02T00:40:28;100553.00;;;34.90;19.50
47935;BME280;33704;43.592;-79.628;2024-03-02T00:41:05;100552.89;;;34.90;19.68
47935;BME280;33704;43.592;-79.628;2024-03-02T00:41:37;100551.83;;;34.88;19.50
47935;BME280;33704;43.592;-79.628;2024-03-02T00:42:14;100551.80;;;34.89;19.65
47935;BME280;33704;43.592;-79.628;2024-03-02T00:42:46;100552.19;;;34.91;19.50
47935;BME280;33704;43.592;-79.628;2024-03-02T00:43:57;100552.59;;;34.89;19.52
47935;BME280;33704;43.592;-79.628;2024-03-02T00:44:30;100548.79;;;34.90;19.82
47935;BME280;33704;43.592;-79.628;2024-03-02T00:45:08;100547.12;;;34.90;20.02
47935;BME280;33704;43.592;-79.628;2024-03-02T00:45:41;100543.99;;;34.91;19.71
47935;BME280;33704;43.592;-79.628;2024-03-02T00:46:16;100540.51;;;34.90;19.61
47935;BME280;33704;43.592;-79.628;2024-03-02T00:46:48;100540.96;;;34.90;20.24
47935;BME280;33704;43.592;-79.628;2024-03-02T00:47:22;100537.85;;;34.93;20.14
47935;BME280;33704;43.592;-79.628;2024-03-02T00:47:54;100538.58;;;34.92;20.13
47935;BME280;33704;43.592;-79.628;2024-03-02T00:48:25;100537.95;;;34.95;19.81
47935;BME280;33704;43.592;-79.628;2024-03-02T00:48:58;100538.09;;;34.94;20.06
47935;BME280;33704;43.592;-79.628;2024-03-02T00:49:32;100534.40;;;34.94;20.00
47935;BME280;33704;43.592;-79.628;2024-03-02T00:50:06;100535.16;;;34.93;19.87
47935;BME280;33704;43.592;-79.628;2024-03-02T00:50:38;100536.68;;;34.90;19.90
47935;BME280;33704;43.592;-79.628;2024-03-02T00:51:10;100537.43;;;34.90;19.95
47935;BME280;33704;43.592;-79.628;2024-03-02T00:51:47;100536.72;;;34.89;20.17
47935;BME280;33704;43.592;-79.628;2024-03-02T00:52:19;100536.66;;;34.91;19.94
47935;BME280;33704;43.592;-79.628;2024-03-02T00:52:53;100540.52;;;34.91;20.25
47935;BME280;33704;43.592;-79.628;2024-03-02T00:53:26;100537.64;;;34.91;20.33
47935;BME280;33704;43.592;-79.628;2024-03-02T00:54:00;100535.67;;;34.93;20.51
47935;BME280;33704;43.592;-79.628;2024-03-02T00:54:33;100536.81;;;34.95;20.19
47935;BME280;33704;43.592;-79.628;2024-03-02T00:55:06;100536.26;;;34.95;20.15
47935;BME280;33704;43.592;-79.628;2024-03-02T00:55:38;100535.84;;;34.98;20.37
47935;BME280;33704;43.592;-79.628;2024-03-02T00:56:18;100533.96;;;34.96;20.40
47935;BME280;33704;43.592;-79.628;2024-03-02T00:56:51;100539.46;;;34.98;20.87
47935;BME280;33704;43.592;-79.628;2024-03-02T00:57:24;100540.21;;;35.04;21.02
47935;BME280;33704;43.592;-79.628;2024-03-02T00:57:56;100539.94;;;35.03;20.71
47935;BME280;33704;43.592;-79.628;2024-03-02T00:58:28;100540.49;;;35.09;20.80
47935;BME280;33704;43.592;-79.628;2024-03-02T00:59:00;100539.43;;;35.05;20.49
47935;BME280;33704;43.592;-79.628;2024-03-02T00:59:32;100539.85;;;35.05;20.20
47935;BME280;33704;43.592;-79.628;2024-03-02T01:00:06;100539.49;;;35.01;20.28
47935;BME280;33704;43.592;-79.628;2024-03-02T01:00:39;100541.48;;;35.01;20.20
47935;BME280;33704;43.592;-79.628;2024-03-02T01:01:12;100540.28;;;35.03;20.23
47935;BME280;33704;43.592;-79.628;2024-03-02T01:01:44;100542.81;;;35.05;20.27
47935;BME280;33704;43.592;-79.628;2024-03-02T01:02:16;100541.48;;;35.04;20.18
47935;BME280;33704;43.592;-79.628;2024-03-02T01:02:48;100541.60;;;35.06;20.36
47935;BME280;33704;43.592;-79.628;2024-03-02T01:03:20;100540.02;;;35.08;20.60
47935;BME280;33704;43.592;-79.628;2024-03-02T01:03:53;100541.10;;;35.08;20.62
47935;BME280;33704;43.592;-79.628;2024-03-02T01:04:25;100539.58;;;35.10;20.86
47935;BME280;33704;43.592;-79.628;2024-03-02T01:04:57;100538.61;;;35.11;20.26
47935;BME280;33704;43.592;-79.628;2024-03-02T01:05:29;100538.52;;;35.10;20.10
47935;BME280;33704;43.592;-79.628;2024-03-02T01:06:03;100539.78;;;35.10;20.43
47935;BME280;33704;43.592;-79.628;2024-03-02T01:06:35;100537.15;;;35.10;20.37
47935;BME280;33704;43.592;-79.628;2024-03-02T01:07:07;100537.18;;;35.14;20.23
47935;BME280;33704;43.592;-79.628;2024-03-02T01:07:39;100538.32;;;35.14;20.72
47935;BME280;33704;43.592;-79.628;2024-03-02T01:08:12;100537.32;;;35.13;20.86
47935;BME280;33704;43.592;-79.628;2024-03-02T01:08:43;100535.15;;;35.15;20.83
47935;BME280;33704;43.592;-79.628;2024-03-02T01:09:15;100534.24;;;35.15;20.73
47935;BME280;33704;43.592;-79.628;2024-03-02T01:09:47;100531.88;;;35.18;20.50
47935;BME280;33704;43.592;-79.628;2024-03-02T01:10:19;100532.90;;;35.17;20.78
47935;BME280;33704;43.592;-79.628;2024-03-02T01:10:56;100530.92;;;35.17;20.43
47935;BME280;33704;43.592;-79.628;2024-03-02T01:11:28;100530.78;;;35.20;20.83
47935;BME280;33704;43.592;-79.628;2024-03-02T01:12:00;100531.79;;;35.16;20.66
47935;BME280;33704;43.592;-79.628;2024-03-02T01:12:32;100532.83;;;35.19;20.67
47935;BME280;33704;43.592;-79.628;2024-03-02T01:13:05;100532.85;;;35.19;20.66
47935;BME280;33704;43.592;-79.628;2024-03-02T01:13:37;100534.75;;;35.19;20.87
47935;BME280;33704;43.592;-79.628;2024-03-02T01:14:09;100535.58;;;35.21;20.84
47935;BME280;33704;43.592;-79.628;2024-03-02T01:14:41;100534.23;;;35.17;20.47
47935;BME280;33704;43.592;-79.628;2024-03-02T01:15:14;100533.56;;;35.17;20.50
47935;BME280;33704;43.592;-79.628;2024-03-02T01:15:46;100533.22;;;35.16;20.64
47935;BME280;33704;43.592;-79.628;2024-03-02T01:16:23;100531.76;;;35.16;20.57
47935;BME280;33704;43.592;-79.628;2024-03-02T01:16:55;100531.50;;;35.18;20.57
47935;BME280;33704;43.592;-79.628;2024-03-02T01:17:26;100531.27;;;35.17;20.54
47935;BME280;33704;43.592;-79.628;2024-03-02T01:18:08;100529.27;;;35.16;20.55
47935;BME280;33704;43.592;-79.628;2024-03-02T01:18:40;100527.52;;;35.16;20.51
47935;BME280;33704;43.592;-79.628;2024-03-02T01:19:13;100528.01;;;35.14;20.63
47935;BME280;33704;43.592;-79.628;2024-03-02T01:19:45;100524.77;;;35.14;20.44
47935;BME280;33704;43.592;-79.628;2024-03-02T01:20:17;100525.55;;;35.16;20.56
47935;BME280;33704;43.592;-79.628;2024-03-02T01:20:49;100524.75;;;35.15;20.48
47935;BME280;33704;43.592;-79.628;2024-03-02T01:21:21;100525.46;;;35.16;20.46
47935;BME280;33704;43.592;-79.628;2024-03-02T01:21:54;100524.32;;;35.15;20.45
47935;BME280;33704;43.592;-79.628;2024-03-02T01:22:26;100524.77;;;35.14;20.55
47935;BME280;33704;43.592;-79.628;2024-03-02T01:22:58;100525.16;;;35.18;20.47
47935;BME280;33704;43.592;-79.628;2024-03-02T01:23:29;100524.85;;;35.21;20.55
47935;BME280;33704;43.592;-79.628;2024-03-02T01:24:04;100525.26;;;35.20;20.47
47935;BME280;33704;43.592;-79.628;2024-03-02T01:24:36;100525.30;;;35.20;20.47
47935;BME280;33704;43.592;-79.628;2024-03-02T01:25:09;100524.04;;;35.19;20.44
47935;BME280;33704;43.592;-79.628;2024-03-02T01:25:41;100522.63;;;35.18;20.54
47935;BME280;33704;43.592;-79.628;2024-03-02T01:26:13;100520.52;;;35.18;20.46
47935;BME280;33704;43.592;-79.628;2024-03-02T01:26:45;100520.06;;;35.18;20.57
47935;BME280;33704;43.592;-79.628;2024-03-02T01:27:17;100519.87;;;35.18;20.69
47935;BME280;33704;43.592;-79.628;2024-03-02T01:27:49;100519.93;;;35.19;20.49
47935;BME280;33704;43.592;-79.628;2024-03-02T01:28:23;100519.01;;;35.22;20.44
47935;BME280;33704;43.592;-79.628;2024-03-02T01:29:36;100513.18;;;35.25;20.55
47935;BME280;33704;43.592;-79.628;2024-03-02T01:30:13;100512.71;;;35.24;20.49
47935;BME280;33704;43.592;-79.628;2024-03-02T01:30:45;100513.57;;;35.25;20.48
47935;BME280;33704;43.592;-79.628;2024-03-02T01:31:17;100512.41;;;35.22;20.54
47935;BME280;33704;43.592;-79.628;2024-03-02T01:31:49;100508.00;;;35.23;20.59
47935;BME280;33704;43.592;-79.628;2024-03-02T01:32:21;100506.43;;;35.23;20.56
47935;BME280;33704;43.592;-79.628;2024-03-02T01:32:53;100500.67;;;35.24;20.52
47935;BME280;33704;43.592;-79.628;2024-03-02T01:33:25;100500.66;;;35.25;20.53
47935;BME280;33704;43.592;-79.628;2024-03-02T01:33:57;100499.52;;;35.23;20.59
47935;BME280;33704;43.592;-79.628;2024-03-02T01:34:29;100499.01;;;35.23;20.58
47935;BME280;33704;43.592;-79.628;2024-03-02T01:35:02;100497.15;;;35.21;20.77
47935;BME280;33704;43.592;-79.628;2024-03-02T01:35:34;100494.49;;;35.19;20.73
47935;BME280;33704;43.592;-79.628;2024-03-02T01:36:07;100496.46;;;35.17;20.77
47935;BME280;33704;43.592;-79.628;2024-03-02T01:36:39;100495.43;;;35.17;20.70
47935;BME280;33704;43.592;-79.628;2024-03-02T01:37:11;100495.06;;;35.21;20.72
47935;BME280;33704;43.592;-79.628;2024-03-02T01:37:44;100494.03;;;35.21;20.62
47935;BME280;33704;43.592;-79.628;2024-03-02T01:38:16;100495.68;;;35.20;20.62
47935;BME280;33704;43.592;-79.628;2024-03-02T01:38:48;100497.10;;;35.22;20.58
47935;BME280;33704;43.592;-79.628;2024-03-02T01:39:20;100495.50;;;35.21;20.60
47935;BME280;33704;43.592;-79.628;2024-03-02T01:39:57;100493.74;;;35.19;20.44
47935;BME280;33704;43.592;-79.628;2024-03-02T01:40:29;100491.60;;;35.21;20.56
47935;BME280;33704;43.592;-79.628;2024-03-02T01:41:03;100490.01;;;35.17;20.53
47935;BME280;33704;43.592;-79.628;2024-03-02T01:41:35;100490.02;;;35.17;20.55
47935;BME280;33704;43.592;-79.628;2024-03-02T01:42:07;100491.59;;;35.17;20.80
47935;BME280;33704;43.592;-79.628;2024-03-02T01:42:39;100489.68;;;35.19;20.79
47935;BME280;33704;43.592;-79.628;2024-03-02T01:43:11;100490.06;;;35.18;20.87
47935;BME280;33704;43.592;-79.628;2024-03-02T01:43:44;100490.82;;;35.18;20.83
47935;BME280;33704;43.592;-79.628;2024-03-02T01:44:15;100487.18;;;35.17;20.85
47935;BME280;33704;43.592;-79.628;2024-03-02T01:44:47;100487.92;;;35.17;20.88
47935;BME280;33704;43.592;-79.628;2024-03-02T01:45:19;100485.18;;;35.17;20.86
47935;BME280;33704;43.592;-79.628;2024-03-02T01:45:52;100484.81;;;35.19;20.91
47935;BME280;33704;43.592;-79.628;2024-03-02T01:46:24;100484.07;;;35.19;20.89
47935;BME280;33704;43.592;-79.628;2024-03-02T01:46:56;100483.35;;;35.17;21.01
47935;BME280;33704;43.592;-79.628;2024-03-02T01:47:28;100483.81;;;35.17;20.99
47935;BME280;33704;43.592;-79.628;2024-03-02T01:48:00;100482.52;;;35.19;21.07
47935;BME280;33704;43.592;-79.628;2024-03-02T01:48:33;100483.46;;;35.19;21.01
47935;BME280;33704;43.592;-79.628;2024-03-02T01:49:05;100482.49;;;35.17;21.03
47935;BME280;33704;43.592;-79.628;2024-03-02T01:49:37;100481.94;;;35.18;21.24
47935;BME280;33704;43.592;-79.628;2024-03-02T01:50:11;100481.61;;;35.14;21.12
47935;BME280;33704;43.592;-79.628;2024-03-02T01:50:44;100479.45;;;35.15;20.95
47935;BME280;33704;43.592;-79.628;2024-03-02T01:51:15;100481.24;;;35.18;20.80
47935;BME280;33704;43.592;-79.628;2024-03-02T01:51:47;100480.80;;;35.19;20.63
47935;BME280;33704;43.592;-79.628;2024-03-02T01:52:19;100478.60;;;35.19;20.67
47935;BME280;33704;43.592;-79.628;2024-03-02T01:52:52;100478.70;;;35.17;20.73
47935;BME280;33704;43.592;-79.628;2024-03-02T01:53:24;100477.69;;;35.18;20.66
47935;BME280;33704;43.592;-79.628;2024-03-02T01:53:57;100477.60;;;35.18;20.85
47935;BME280;33704;43.592;-79.628;2024-03-02T01:54:29;100476.55;;;35.20;20.69
47935;BME280;33704;43.592;-79.628;2024-03-02T01:55:03;100475.82;;;35.21;20.86
47935;BME280;33704;43.592;-79.628;2024-03-02T01:55:35;100474.70;;;35.21;20.77
47935;BME280;33704;43.592;-79.628;2024-03-02T01:56:07;100475.26;;;35.20;20.71
47935;BME280;33704;43.592;-79.628;2024-03-02T01:56:39;100473.19;;;35.21;20.74
47935;BME280;33704;43.592;-79.628;2024-03-02T01:57:13;100472.29;;;35.21;20.73
47935;BME280;33704;43.592;-79.628;2024-03-02T01:57:45;100469.45;;;35.21;20.73
47935;BME280;33704;43.592;-79.628;2024-03-02T01:58:17;100468.23;;;35.18;20.74
47935;BME280;33704;43.592;-79.628;2024-03-02T01:58:49;100466.86;;;35.17;20.77
47935;BME280;33704;43.592;-79.628;2024-03-02T01:59:21;100467.01;;;35.15;20.73
47935;BME280;33704;43.592;-79.628;2024-03-02T01:59:53;100465.07;;;35.16;21.21
47935;BME280;33704;43.592;-79.628;2024-03-02T02:00:26;100463.11;;;35.15;20.89
47935;BME280;33704;43.592;-79.628;2024-03-02T02:00:57;100464.17;;;35.15;20.74
47935;BME280;33704;43.592;-79.628;2024-03-02T02:01:29;100464.95;;;35.17;20.96
47935;BME280;33704;43.592;-79.628;2024-03-02T02:02:03;100465.14;;;35.18;20.73
47935;BME280;33704;43.592;-79.628;2024-03-02T02:02:35;100463.64;;;35.17;20.58
47935;BME280;33704;43.592;-79.628;2024-03-02T02:03:07;100462.49;;;35.17;20.62
47935;BME280;33704;43.592;-79.628;2024-03-02T02:03:39;100461.44;;;35.17;20.51
47935;BME280;33704;43.592;-79.628;2024-03-02T02:04:11;100460.89;;;35.18;20.61
47935;BME280;33704;43.592;-79.628;2024-03-02T02:04:43;100460.89;;;35.17;20.41
47935;BME280;33704;43.592;-79.628;2024-03-02T02:05:15;100459.83;;;35.18;20.55
47935;BME280;33704;43.592;-79.628;2024-03-02T02:05:47;100459.70;;;35.20;20.52
47935;BME280;33704;43.592;-79.628;2024-03-02T02:06:19;100461.93;;;35.19;20.44
47935;BME280;33704;43.592;-79.628;2024-03-02T02:06:51;100459.84;;;35.18;20.42
47935;BME280;33704;43.592;-79.628;2024-03-02T02:07:24;100460.76;;;35.20;20.28
47935;BME280;33704;43.592;-79.628;2024-03-02T02:07:55;100461.22;;;35.21;20.48
47935;BME280;33704;43.592;-79.628;2024-03-02T02:08:27;100461.21;;;35.21;20.43
47935;BME280;33704;43.592;-79.628;2024-03-02T02:09:00;100460.61;;;35.24;20.33
47935;BME280;33704;43.592;-79.628;2024-03-02T02:09:33;100460.58;;;35.24;20.39
47935;BME280;33704;43.592;-79.628;2024-03-02T02:10:06;100459.46;;;35.23;20.40
47935;BME280;33704;43.592;-79.628;2024-03-02T02:10:38;100459.75;;;35.23;20.23
47935;BME280;33704;43.592;-79.628;2024-03-02T02:11:10;100458.84;;;35.24;20.32
47935;BME280;33704;43.592;-79.628;2024-03-02T02:11:43;100459.82;;;35.21;20.36
47935;BME280;33704;43.592;-79.628;2024-03-02T02:12:15;100461.50;;;35.22;20.29
47935;BME280;33704;43.592;-79.628;2024-03-02T02:12:47;100459.57;;;35.22;20.30
47935;BME280;33704;43.592;-79.628;2024-03-02T02:13:19;100457.89;;;35.21;20.28
47935;BME280;33704;43.592;-79.628;2024-03-02T02:13:51;100457.65;;;35.20;20.39
47935;BME280;33704;43.592;-79.628;2024-03-02T02:14:23;100459.42;;;35.21;20.32
47935;BME280;33704;43.592;-79.628;2024-03-02T02:14:55;100459.85;;;35.21;20.29
47935;BME280;33704;43.592;-79.628;2024-03-02T02:15:28;100458.28;;;35.20;20.37
47935;BME280;33704;43.592;-79.628;2024-03-02T02:16:05;100459.27;;;35.19;20.62
47935;BME280;33704;43.592;-79.628;2024-03-02T02:16:37;100460.26;;;35.20;20.52
47935;BME280;33704;43.592;-79.628;2024-03-02T02:17:09;100459.65;;;35.19;20.61
47935;BME280;33704;43.592;-79.628;2024-03-02T02:17:41;100459.44;;;35.20;20.55
47935;BME280;33704;43.592;-79.628;2024-03-02T02:18:13;100459.22;;;35.19;20.42
47935;BME280;33704;43.592;-79.628;2024-03-02T02:18:45;100460.68;;;35.18;20.34
47935;BME280;33704;43.592;-79.628;2024-03-02T02:19:17;100459.74;;;35.19;20.24
47935;BME280;33704;43.592;-79.628;2024-03-02T02:19:49;100460.57;;;35.20;20.41
47935;BME280;33704;43.592;-79.628;2024-03-02T02:20:21;100457.64;;;35.23;20.25
47935;BME280;33704;43.592;-79.628;2024-03-02T02:20:54;100459.45;;;35.26;20.20
47935;BME280;33704;43.592;-79.628;2024-03-02T02:21:25;100458.28;;;35.26;20.21
47935;BME280;33704;43.592;-79.628;2024-03-02T02:21:57;100455.92;;;35.30;20.61
47935;BME280;33704;43.592;-79.628;2024-03-02T02:22:29;100460.19;;;35.39;20.35
47935;BME280;33704;43.592;-79.628;2024-03-02T02:23:03;100456.43;;;35.40;20.56
47935;BME280;33704;43.592;-79.628;2024-03-02T02:23:35;100456.87;;;35.41;20.26
47935;BME280;33704;43.592;-79.628;2024-03-02T02:24:07;100459.10;;;35.41;20.24
47935;BME280;33704;43.592;-79.628;2024-03-02T02:24:40;100459.02;;;35.41;20.27
47935;BME280;33704;43.592;-79.628;2024-03-02T02:25:13;100459.45;;;35.46;20.03
47935;BME280;33704;43.592;-79.628;2024-03-02T02:25:45;100459.67;;;35.50;20.17
47935;BME280;33704;43.592;-79.628;2024-03-02T02:26:16;100458.97;;;35.49;20.00
47935;BME280;33704;43.592;-79.628;2024-03-02T02:26:48;100458.87;;;35.51;20.02
47935;BME280;33704;43.592;-79.628;2024-03-02T02:27:20;100458.98;;;35.49;20.16
47935;BME280;33704;43.592;-79.628;2024-03-02T02:27:53;100459.12;;;35.51;20.15
47935;BME280;33704;43.592;-79.628;2024-03-02T02:28:25;100458.59;;;35.50;20.02
47935;BME280;33704;43.592;-79.628;2024-03-02T02:28:57;100458.46;;;35.53;20.04
47935;BME280;33704;43.592;-79.628;2024-03-02T02:29:29;100457.83;;;35.53;20.09
47935;BME280;33704;43.592;-79.628;2024-03-02T02:30:04;100455.93;;;35.53;20.02
47935;BME280;33704;43.592;-79.628;2024-03-02T02:30:36;100455.78;;;35.52;20.02
47935;BME280;33704;43.592;-79.628;2024-03-02T02:31:08;100452.44;;;35.60;19.93
47935;BME280;33704;43.592;-79.628;2024-03-02T02:31:40;100453.71;;;35.58;20.04
47935;BME280;33704;43.592;-79.628;2024-03-02T02:32:13;100451.86;;;35.57;19.98
47935;BME280;33704;43.592;-79.628;2024-03-02T02:32:45;100449.90;;;35.56;19.95
47935;BME280;33704;43.592;-79.628;2024-03-02T02:33:17;100450.09;;;35.54;19.96
47935;BME280;33704;43.592;-79.628;2024-03-02T02:33:48;100449.49;;;35.53;19.96
47935;BME280;33704;43.592;-79.628;2024-03-02T02:34:20;100449.73;;;35.52;20.06
47935;BME280;33704;43.592;-79.628;2024-03-02T02:34:53;100451.40;;;35.55;20.07
47935;BME280;33704;43.592;-79.628;2024-03-02T02:35:25;100451.23;;;35.54;20.01
47935;BME280;33704;43.592;-79.628;2024-03-02T02:35:57;100451.72;;;35.57;19.93
47935;BME280;33704;43.592;-79.628;2024-03-02T02:36:29;100451.53;;;35.58;19.96
47935;BME280;33704;43.592;-79.628;2024-03-02T02:37:02;100449.80;;;35.59;19.90
47935;BME280;33704;43.592;-79.628;2024-03-02T02:37:34;100450.79;;;35.60;19.94
47935;BME280;33704;43.592;-79.628;2024-03-02T02:38:06;100450.07;;;35.59;19.96
47935;BME280;33704;43.592;-79.628;2024-03-02T02:38:40;100448.65;;;35.56;20.02
47935;BME280;33704;43.592;-79.628;2024-03-02T02:39:16;100446.79;;;35.59;19.97
47935;BME280;33704;43.592;-79.628;2024-03-02T02:39:50;100448.74;;;35.60;19.96
47935;BME280;33704;43.592;-79.628;2024-03-02T02:40:23;100448.27;;;35.54;20.04
47935;BME280;33704;43.592;-79.628;2024-03-02T02:40:55;100450.04;;;35.49;20.03
47935;BME280;33704;43.592;-79.628;2024-03-02T02:41:27;100447.94;;;35.47;20.08
47935;BME280;33704;43.592;-79.628;2024-03-02T02:41:59;100444.59;;;35.47;20.08
47935;BME280;33704;43.592;-79.628;2024-03-02T02:42:31;100445.31;;;35.43;20.20
47935;BME280;33704;43.592;-79.628;2024-03-02T02:43:04;100445.05;;;35.39;20.08
47935;BME280;33704;43.592;-79.628;2024-03-02T02:43:36;100443.34;;;35.40;20.16
47935;BME280;33704;43.592;-79.628;2024-03-02T02:44:08;100442.87;;;35.42;20.09
47935;BME280;33704;43.592;-79.628;2024-03-02T02:44:40;100444.13;;;35.43;20.01
47935;BME280;33704;43.592;-79.628;2024-03-02T02:45:13;100442.64;;;35.43;20.12
47935;BME280;33704;43.592;-79.628;2024-03-02T02:45:45;100442.59;;;35.46;20.08
47935;BME280;33704;43.592;-79.628;2024-03-02T02:46:17;100441.72;;;35.44;20.13
47935;BME280;33704;43.592;-79.628;2024-03-02T02:46:49;100440.95;;;35.42;20.07
47935;BME280;33704;43.592;-79.628;2024-03-02T02:47:22;100441.47;;;35.42;20.12
47935;BME280;33704;43.592;-79.628;2024-03-02T02:47:54;100440.78;;;35.40;20.18
47935;BME280;33704;43.592;-79.628;2024-03-02T02:48:26;100439.68;;;35.42;20.04
47935;BME280;33704;43.592;-79.628;2024-03-02T02:48:58;100438.80;;;35.43;20.12